Terminal Aerodrome Forecast
Issued by NWS

Home | Current Version | Previous Version | Text Only | Print | Product List | Glossary On
Versions: 1 2 3 4 5 6 7 8 9 10 11 12 13 14 15 16
394
FTUS42 KMLB 232322
TAFTIX
TAF
KTIX 232322Z 2400/2424 07014G21KT P6SM SCT030 SCT040 BKN060
     FM240300 08010G17KT P6SM FEW030 BKN100
     FM241400 11014G22KT P6SM SCT030 BKN120
      AMD NOT SKED 2401/2411=

USA.gov is the U.S. government's official web portal to all federal, state and local government web resources and services.